Time;durP1;ratioP1;P1;durP2;ratioP2;P2;SDS_P1;SDS_P2;PMS_P1;PMS_P2;Temp;Humidity;BMP_temperature;BMP_pressure;BME280_temperature;BME280_humidity;BME280_pressure;Samples;Min_cycle;Max_cycle;Signal;HPM_P1;HPM_P2
2022/07/21 00:01:03;;;;;;;8.48;3.53;;;22.30;99.50;;;;;;4994624;28;20049;-80
2022/07/21 00:03:29;;;;;;;5.85;3.30;;;22.30;99.50;;;;;;4994691;28;20050;-81
2022/07/21 00:05:55;;;;;;;6.13;3.45;;;22.30;99.60;;;;;;4993406;28;20049;-80
2022/07/21 00:08:21;;;;;;;5.13;3.65;;;22.30;99.60;;;;;;4993994;28;20778;-80
2022/07/21 00:10:46;;;;;;;6.47;3.45;;;22.20;99.60;;;;;;4993604;28;20088;-81
2022/07/21 00:13:12;;;;;;;6.25;4.28;;;22.20;99.80;;;;;;4993246;28;20042;-79
2022/07/21 00:15:38;;;;;;;5.88;3.40;;;22.20;99.90;;;;;;4994372;28;20121;-81
2022/07/21 00:18:04;;;;;;;6.60;3.40;;;22.20;99.90;;;;;;4993428;28;20050;-81
2022/07/21 00:20:32;;;;;;;6.05;3.40;;;22.10;99.90;;;;;;4994480;28;20043;-81
2022/07/21 00:22:58;;;;;;;6.35;4.00;;;22.10;99.90;;;;;;4993366;28;20146;-80
2022/07/21 00:25:25;;;;;;;6.63;4.13;;;22.10;99.90;;;;;;4994279;28;20046;-81
2022/07/21 00:27:51;;;;;;;6.85;3.95;;;22.10;99.90;;;;;;4977082;28;20489;-80
2022/07/21 00:30:17;;;;;;;6.78;3.92;;;22.00;99.90;;;;;;4994268;28;20100;-81
2022/07/21 00:32:43;;;;;;;6.85;4.43;;;22.00;99.90;;;;;;4993014;28;20078;-81
2022/07/21 00:35:11;;;;;;;5.90;4.13;;;22.00;99.90;;;;;;4994195;28;20050;-81
2022/07/21 00:37:38;;;;;;;6.78;4.47;;;22.00;99.90;;;;;;4992862;28;20042;-80
2022/07/21 00:40:08;;;;;;;7.53;4.40;;;22.00;99.90;;;;;;4994093;28;20548;-81
2022/07/21 00:42:34;;;;;;;5.95;3.97;;;22.00;99.90;;;;;;4993299;28;20433;-81
2022/07/21 00:45:00;;;;;;;9.18;3.97;;;22.00;99.90;;;;;;4992981;28;20046;-81
2022/07/21 00:47:30;;;;;;;16.77;6.03;;;22.00;99.90;;;;;;4994172;28;20043;-81
2022/07/21 00:49:57;;;;;;;16.23;6.43;;;22.00;99.90;;;;;;4993889;28;20104;-76
2022/07/21 00:52:23;;;;;;;9.18;5.93;;;21.90;99.90;;;;;;4976866;28;20516;-74
2022/07/21 00:54:49;;;;;;;16.65;7.72;;;21.80;99.90;;;;;;4993580;28;20047;-73
2022/07/21 00:57:15;;;;;;;14.80;7.50;;;21.60;99.90;;;;;;4992887;28;20158;-71
2022/07/21 00:59:42;;;;;;;19.00;8.68;;;21.40;99.90;;;;;;4993785;28;20117;-72
2022/07/21 01:02:09;;;;;;;15.38;8.07;;;21.20;99.90;;;;;;4992458;28;20046;-72
2022/07/21 01:04:35;;;;;;;16.35;8.55;;;21.00;99.90;;;;;;4993441;28;20049;-72
2022/07/21 01:07:03;;;;;;;12.05;8.32;;;20.80;99.90;;;;;;4993420;28;20049;-71
2022/07/21 01:09:30;;;;;;;14.23;7.82;;;20.60;99.90;;;;;;4976269;28;20051;-72
2022/07/21 01:11:57;;;;;;;17.42;9.70;;;20.40;99.90;;;;;;4995725;28;20109;-73
2022/07/21 01:14:25;;;;;;;18.40;10.60;;;20.20;99.90;;;;;;4996379;28;20463;-72
2022/07/21 01:16:51;;;;;;;24.65;11.07;;;20.20;99.90;;;;;;4997456;28;20058;-72
2022/07/21 01:19:17;;;;;;;21.38;11.15;;;20.10;99.90;;;;;;4997287;28;20073;-72
2022/07/21 01:21:45;;;;;;;15.85;11.18;;;20.10;99.90;;;;;;4997709;28;20105;-72
2022/07/21 01:24:10;;;;;;;20.98;11.32;;;20.00;99.90;;;;;;4996436;28;20497;-73
2022/07/21 01:26:44;;;;;;;19.20;11.18;;;20.00;99.90;;;;;;4997541;28;20112;-72
2022/07/21 01:29:11;;;;;;;17.70;10.68;;;20.00;99.90;;;;;;4996152;28;20046;-72
2022/07/21 01:31:38;;;;;;;13.57;9.82;;;19.90;99.90;;;;;;4996820;28;20508;-72
2022/07/21 01:34:04;;;;;;;19.70;10.60;;;19.80;99.90;;;;;;4997264;28;20045;-72
2022/07/21 01:36:30;;;;;;;22.02;12.60;;;19.80;99.90;;;;;;4997205;28;20208;-72
2022/07/21 01:41:41;;;;;;;21.70;11.75;;;19.70;99.90;;;;;;4997133;28;20161;-72
2022/07/21 01:44:10;;;;;;;19.80;12.23;;;19.70;99.90;;;;;;4995501;28;20038;-72
2022/07/21 01:46:46;;;;;;;17.10;11.23;;;19.70;99.90;;;;;;4996010;28;20054;-71
2022/07/21 01:49:13;;;;;;;22.00;12.77;;;19.70;99.90;;;;;;4997192;28;20061;-71
2022/07/21 01:51:39;;;;;;;22.50;13.40;;;19.70;99.90;;;;;;4995877;28;20524;-71
2022/07/21 01:54:09;;;;;;;22.58;12.18;;;19.70;99.90;;;;;;4996127;28;20039;-72
2022/07/21 01:56:36;;;;;;;17.40;11.63;;;19.70;99.90;;;;;;4996815;28;20414;-72
2022/07/21 01:59:03;;;;;;;20.50;12.45;;;19.70;99.90;;;;;;4995492;28;20136;-72
2022/07/21 02:01:29;;;;;;;17.88;11.80;;;19.60;99.90;;;;;;4995794;28;20054;-72
2022/07/21 02:03:58;;;;;;;19.35;11.85;;;19.60;99.90;;;;;;4995339;28;20039;-72
2022/07/21 02:06:23;;;;;;;19.90;11.77;;;19.60;99.90;;;;;;4996398;28;20046;-72
2022/07/21 02:08:49;;;;;;;14.80;10.82;;;19.50;99.90;;;;;;4996435;28;20047;-72
2022/07/21 02:11:17;;;;;;;20.00;11.73;;;19.50;99.90;;;;;;4996360;28;20049;-73
2022/07/21 02:13:44;;;;;;;18.98;12.68;;;19.40;99.90;;;;;;4996481;28;20053;-73
2022/07/21 02:16:10;;;;;;;19.98;13.15;;;19.40;99.90;;;;;;5011560;28;20096;-72
2022/07/21 02:18:36;;;;;;;20.60;12.55;;;19.40;99.90;;;;;;4996434;28;20391;-72
2022/07/21 02:21:03;;;;;;;17.52;11.57;;;19.50;99.90;;;;;;4995003;28;20046;-72
2022/07/21 02:23:29;;;;;;;20.05;12.15;;;19.50;99.90;;;;;;4994276;28;20529;-72
2022/07/21 02:25:56;;;;;;;17.05;11.13;;;19.50;99.90;;;;;;4994762;28;20408;-72
2022/07/21 02:28:23;;;;;;;20.25;11.85;;;19.40;99.90;;;;;;4995163;28;20062;-72
2022/07/21 02:30:51;;;;;;;20.10;12.27;;;19.40;99.90;;;;;;4996299;28;20051;-72
2022/07/21 02:33:17;;;;;;;21.33;13.38;;;19.40;99.90;;;;;;4995425;28;20452;-72
2022/07/21 02:35:44;;;;;;;19.63;12.15;;;19.30;99.90;;;;;;4995974;28;20046;-72
2022/07/21 02:38:10;;;;;;;21.80;13.48;;;19.30;99.90;;;;;;4995895;28;20089;-72
2022/07/21 02:40:36;;;;;;;22.13;13.80;;;19.30;99.90;;;;;;4995628;28;20042;-72
2022/07/21 02:43:03;;;;;;;23.98;14.07;;;19.40;99.90;;;;;;4996216;28;20371;-72
2022/07/21 02:45:29;;;;;;;20.90;13.98;;;19.40;99.90;;;;;;4995769;28;20401;-71
2022/07/21 02:48:01;;;;;;;22.88;13.38;;;19.40;99.90;;;;;;4995926;28;20042;-72
2022/07/21 02:50:29;;;;;;;19.58;13.27;;;19.40;99.90;;;;;;4995691;28;20100;-72
2022/07/21 02:53:00;;;;;;;17.02;11.68;;;19.50;99.90;;;;;;4995127;28;20093;-73
2022/07/21 02:55:27;;;;;;;17.95;12.52;;;19.50;99.90;;;;;;4995960;28;20105;-73
2022/07/21 02:58:11;;;;;;;15.93;11.38;;;19.50;99.90;;;;;;4995523;28;20054;-72
2022/07/21 03:00:40;;;;;;;21.02;13.07;;;19.50;99.90;;;;;;4995747;28;20089;-72
2022/07/21 03:03:07;;;;;;;21.30;12.80;;;19.50;99.90;;;;;;4995428;28;20050;-72
2022/07/21 03:05:33;;;;;;;18.85;12.02;;;19.50;99.90;;;;;;4995032;28;20042;-74
2022/07/21 03:07:59;;;;;;;22.00;13.63;;;19.50;99.90;;;;;;4994364;28;20109;-72
2022/07/21 03:10:27;;;;;;;22.80;13.27;;;19.40;99.90;;;;;;4995666;28;20096;-71
2022/07/21 03:12:53;;;;;;;17.92;12.98;;;19.40;99.90;;;;;;4995847;28;20042;-72
2022/07/21 03:15:19;;;;;;;21.40;13.43;;;19.40;99.90;;;;;;4995257;28;20537;-72
2022/07/21 03:17:45;;;;;;;19.95;13.23;;;19.40;99.90;;;;;;4994175;28;20057;-72
2022/07/21 03:20:11;;;;;;;21.63;13.07;;;19.40;99.90;;;;;;4995077;28;20133;-72
2022/07/21 03:22:37;;;;;;;27.17;14.88;;;19.40;99.90;;;;;;4995063;28;20038;-72
2022/07/21 03:25:04;;;;;;;15.57;12.50;;;19.40;99.90;;;;;;4994600;28;20398;-71
2022/07/21 03:27:29;;;;;;;22.88;14.60;;;19.40;99.90;;;;;;4994841;28;20065;-71
2022/07/21 03:29:58;;;;;;;22.85;14.43;;;19.40;99.90;;;;;;4993811;28;20054;-72
2022/07/21 03:32:23;;;;;;;21.50;13.70;;;19.40;99.90;;;;;;4994780;28;20065;-72
2022/07/21 03:34:49;;;;;;;23.60;14.32;;;19.30;99.90;;;;;;4993454;28;20054;-72
2022/07/21 03:37:15;;;;;;;23.77;14.52;;;19.30;99.90;;;;;;4993996;28;20046;-71
2022/07/21 03:39:40;;;;;;;21.15;14.40;;;19.30;99.90;;;;;;4993425;28;20057;-72
2022/07/21 03:42:06;;;;;;;18.13;13.13;;;19.30;99.90;;;;;;4993621;28;20129;-72
2022/07/21 03:44:32;;;;;;;21.10;14.05;;;19.30;99.90;;;;;;4994647;28;20038;-72
2022/07/21 03:46:59;;;;;;;26.63;15.45;;;19.30;99.90;;;;;;4993572;28;20437;-72
2022/07/21 03:49:28;;;;;;;19.13;13.70;;;19.30;99.90;;;;;;4994654;28;20061;-72
2022/07/21 03:51:53;;;;;;;24.25;14.75;;;19.30;99.90;;;;;;4994474;28;20479;-72
2022/07/21 03:54:19;;;;;;;21.73;14.88;;;19.30;99.90;;;;;;4994408;28;20046;-71
2022/07/21 03:56:45;;;;;;;20.17;13.65;;;19.30;99.90;;;;;;4994587;28;20110;-72
2022/07/21 03:59:11;;;;;;;24.02;14.48;;;19.30;99.90;;;;;;4994480;28;20057;-71
2022/07/21 04:01:36;;;;;;;24.33;14.98;;;19.30;99.90;;;;;;4994349;28;20097;-71
2022/07/21 04:04:02;;;;;;;18.92;13.70;;;19.20;99.90;;;;;;4994129;28;20053;-72
2022/07/21 04:06:28;;;;;;;19.48;12.95;;;19.20;99.90;;;;;;5009379;28;20068;-71
2022/07/21 04:08:53;;;;;;;20.50;13.68;;;19.20;99.90;;;;;;4993642;28;20054;-71
2022/07/21 04:11:19;;;;;;;21.70;14.35;;;19.20;99.90;;;;;;4994308;28;20108;-72
2022/07/21 04:13:45;;;;;;;17.33;13.25;;;19.20;99.90;;;;;;4994034;28;20053;-71
2022/07/21 04:16:10;;;;;;;20.42;13.75;;;19.20;99.90;;;;;;4993113;28;20054;-71
2022/07/21 04:18:36;;;;;;;22.98;14.63;;;19.20;99.90;;;;;;4993039;28;20054;-71
2022/07/21 04:21:02;;;;;;;26.10;14.88;;;19.20;99.90;;;;;;4993296;28;20050;-71
2022/07/21 04:23:27;;;;;;;21.60;13.93;;;19.20;99.90;;;;;;4994340;28;20053;-72
2022/07/21 04:25:53;;;;;;;19.27;13.75;;;19.20;99.90;;;;;;4993157;28;20466;-71
2022/07/21 04:28:19;;;;;;;25.13;15.30;;;19.30;99.90;;;;;;4993972;28;20387;-71
2022/07/21 04:30:45;;;;;;;27.98;15.77;;;19.30;99.90;;;;;;4994072;28;20125;-70
2022/07/21 04:33:10;;;;;;;29.38;15.68;;;19.30;99.90;;;;;;4992545;28;20088;-71
2022/07/21 04:35:36;;;;;;;21.45;13.75;;;19.20;99.90;;;;;;4993214;28;20050;-70
2022/07/21 04:38:04;;;;;;;18.48;13.88;;;19.20;99.90;;;;;;4992823;28;20046;-70
2022/07/21 04:40:30;;;;;;;22.13;14.32;;;19.20;99.90;;;;;;4992825;28;20068;-71
2022/07/21 04:42:56;;;;;;;25.90;15.93;;;19.30;99.90;;;;;;4993632;28;20047;-70
2022/07/21 04:45:22;;;;;;;23.67;15.73;;;19.30;99.90;;;;;;4992809;28;20047;-71
2022/07/21 04:47:50;;;;;;;21.42;14.52;;;19.30;99.90;;;;;;4997653;28;20050;-71
2022/07/21 04:50:18;;;;;;;30.23;15.90;;;19.30;99.90;;;;;;4998543;28;20042;-71
2022/07/21 04:52:44;;;;;;;25.17;16.00;;;19.30;99.90;;;;;;4998003;28;20129;-71
2022/07/21 04:55:10;;;;;;;21.02;14.48;;;19.30;99.90;;;;;;4997328;28;20057;-70
2022/07/21 04:57:41;;;;;;;23.17;14.25;;;19.30;99.90;;;;;;4980635;28;20050;-71
2022/07/21 05:00:10;;;;;;;17.63;13.85;;;19.30;99.90;;;;;;4996628;28;20061;-72
2022/07/21 05:02:35;;;;;;;23.63;14.23;;;19.20;99.90;;;;;;4997714;28;20120;-71
2022/07/21 05:05:01;;;;;;;21.85;14.27;;;19.20;99.90;;;;;;4998252;28;20125;-72
2022/07/21 05:07:27;;;;;;;20.50;14.07;;;19.30;99.90;;;;;;4997700;28;20050;-71
2022/07/21 05:09:53;;;;;;;19.38;13.93;;;19.30;99.90;;;;;;4996532;28;20065;-71
2022/07/21 05:12:19;;;;;;;21.98;14.57;;;19.20;99.90;;;;;;4996636;28;20441;-72
2022/07/21 05:14:44;;;;;;;21.65;13.85;;;19.30;99.90;;;;;;4997533;28;20049;-72
2022/07/21 05:17:10;;;;;;;22.98;13.52;;;19.30;99.90;;;;;;4997325;28;20054;-72
2022/07/21 05:19:36;;;;;;;21.95;13.52;;;19.20;99.90;;;;;;4996262;28;20061;-72
2022/07/21 05:22:01;;;;;;;19.17;13.88;;;19.30;99.90;;;;;;4980704;28;20085;-72
2022/07/21 05:24:27;;;;;;;20.50;13.80;;;19.20;99.90;;;;;;4996933;28;20046;-73
2022/07/21 05:26:53;;;;;;;25.15;15.32;;;19.30;99.90;;;;;;4996002;28;20055;-71
2022/07/21 05:29:18;;;;;;;19.48;13.70;;;19.30;99.90;;;;;;4996129;28;20045;-73
2022/07/21 05:31:44;;;;;;;20.17;15.18;;;19.30;99.90;;;;;;4995996;28;20058;-72
2022/07/21 05:34:10;;;;;;;22.58;14.63;;;19.30;99.90;;;;;;4997191;28;20319;-72
2022/07/21 05:36:36;;;;;;;21.85;15.07;;;19.40;99.90;;;;;;4995851;28;20559;-73
2022/07/21 05:39:02;;;;;;;26.92;17.58;;;19.40;99.90;;;;;;4996992;28;20038;-72
2022/07/21 05:41:28;;;;;;;26.55;17.17;;;19.40;99.90;;;;;;4996870;28;20061;-72
2022/07/21 05:43:53;;;;;;;29.05;18.00;;;19.50;99.90;;;;;;4996765;28;20038;-73
2022/07/21 05:46:19;;;;;;;28.83;17.25;;;19.60;99.90;;;;;;4995780;28;20054;-73
2022/07/21 05:48:45;;;;;;;29.05;18.40;;;19.60;99.90;;;;;;4996999;28;20514;-72
2022/07/21 05:51:10;;;;;;;26.88;18.13;;;19.60;99.90;;;;;;4997009;28;20046;-73
2022/07/21 05:53:36;;;;;;;28.45;19.23;;;19.60;99.90;;;;;;4996293;28;20413;-73
2022/07/21 05:56:02;;;;;;;29.55;18.95;;;19.60;99.90;;;;;;4995747;28;20053;-73
2022/07/21 05:58:27;;;;;;;26.38;17.13;;;19.60;99.90;;;;;;4979228;28;20048;-73
2022/07/21 06:01:08;;;;;;;25.73;19.13;;;19.70;99.90;;;;;;4996568;28;20046;-73
2022/07/21 06:03:39;;;;;;;28.55;18.15;;;19.70;99.90;;;;;;4996777;28;20088;-73
2022/07/21 06:06:05;;;;;;;23.85;17.42;;;19.70;99.90;;;;;;4995401;28;20042;-73
2022/07/21 06:08:31;;;;;;;28.67;19.02;;;19.70;99.90;;;;;;4996706;28;20054;-73
2022/07/21 06:10:57;;;;;;;25.10;18.02;;;19.70;99.90;;;;;;4995519;28;20371;-73
2022/07/21 06:13:23;;;;;;;25.70;18.05;;;19.70;99.90;;;;;;4996017;28;20042;-73
2022/07/21 06:15:49;;;;;;;24.17;17.15;;;19.70;99.90;;;;;;4996416;28;20061;-73
2022/07/21 06:18:15;;;;;;;29.20;18.58;;;19.70;99.90;;;;;;4996320;28;20042;-73
2022/07/21 06:20:41;;;;;;;26.90;19.30;;;19.70;99.90;;;;;;4996197;28;20510;-73
2022/07/21 06:23:07;;;;;;;27.67;19.55;;;19.70;99.90;;;;;;4995637;28;20121;-74
2022/07/21 06:25:33;;;;;;;24.65;18.20;;;19.80;99.90;;;;;;4995170;28;20138;-73
2022/07/21 06:27:59;;;;;;;28.13;20.15;;;19.70;99.90;;;;;;4996174;28;20433;-73
2022/07/21 06:30:25;;;;;;;23.33;17.90;;;19.70;99.90;;;;;;4996159;28;20054;-73
2022/07/21 06:32:50;;;;;;;27.70;19.70;;;19.80;99.90;;;;;;4996158;28;20054;-73
2022/07/21 06:35:16;;;;;;;31.50;21.67;;;19.80;99.90;;;;;;4978833;28;20062;-73
2022/07/21 06:37:45;;;;;;;30.13;20.00;;;19.90;99.90;;;;;;4995903;28;20057;-73
2022/07/21 06:40:11;;;;;;;30.08;21.67;;;19.90;99.90;;;;;;4996072;28;20069;-73
2022/07/21 06:42:37;;;;;;;25.17;19.67;;;20.00;99.90;;;;;;4994645;28;20042;-73
2022/07/21 06:45:03;;;;;;;21.08;17.50;;;20.10;99.90;;;;;;4995776;28;20514;-74
2022/07/21 06:47:28;;;;;;;22.00;17.90;;;20.00;99.90;;;;;;4978806;28;20050;-73
2022/07/21 06:49:54;;;;;;;25.15;19.90;;;20.00;99.90;;;;;;4995618;28;20490;-73
2022/07/21 06:52:20;;;;;;;23.73;19.45;;;20.00;99.90;;;;;;4978047;28;20054;-74
2022/07/21 06:54:46;;;;;;;27.67;21.65;;;20.00;99.90;;;;;;4977803;28;20052;-73
2022/07/21 06:57:13;;;;;;;26.08;19.48;;;19.90;99.90;;;;;;4995231;28;20050;-74
2022/07/21 06:59:39;;;;;;;24.50;19.65;;;19.90;99.90;;;;;;4978563;28;20124;-73
2022/07/21 07:02:05;;;;;;;29.63;20.25;;;19.80;99.90;;;;;;4994669;28;20489;-73
2022/07/21 07:04:30;;;;;;;25.10;20.00;;;19.80;99.90;;;;;;4995323;28;20490;-74
2022/07/21 07:06:56;;;;;;;23.60;19.88;;;19.90;99.90;;;;;;5010428;28;20042;-74
2022/07/21 07:09:23;;;;;;;25.38;19.35;;;19.90;99.90;;;;;;4994890;28;20054;-73
2022/07/21 07:11:51;;;;;;;27.48;21.25;;;19.90;99.90;;;;;;4994174;28;20061;-74
2022/07/21 07:14:17;;;;;;;25.55;21.10;;;19.90;99.90;;;;;;4994160;28;20130;-74
2022/07/21 07:16:43;;;;;;;25.48;20.45;;;19.90;99.90;;;;;;4994304;28;20136;-74
2022/07/21 07:19:09;;;;;;;22.83;18.92;;;20.00;99.90;;;;;;4995114;28;20508;-74
2022/07/21 07:21:35;;;;;;;27.50;20.85;;;20.00;99.90;;;;;;4994293;28;20105;-75
2022/07/21 07:24:01;;;;;;;23.83;19.27;;;20.00;99.90;;;;;;4994407;28;20103;-75
2022/07/21 07:26:28;;;;;;;25.02;19.83;;;19.90;99.90;;;;;;4994754;28;20065;-73
2022/07/21 07:28:53;;;;;;;25.90;20.30;;;19.90;99.90;;;;;;4995231;28;20046;-74
2022/07/21 07:31:19;;;;;;;28.08;21.08;;;19.90;99.90;;;;;;5010195;28;20529;-75
2022/07/21 07:33:45;;;;;;;25.17;21.25;;;19.90;99.90;;;;;;4995065;28;20057;-74
2022/07/21 07:36:12;;;;;;;25.70;20.63;;;19.80;99.90;;;;;;4994011;28;20482;-75
2022/07/21 07:38:39;;;;;;;26.63;22.33;;;19.80;99.90;;;;;;4977499;28;20402;-75
2022/07/21 07:41:05;;;;;;;29.10;20.80;;;19.70;99.90;;;;;;4995029;28;20046;-75
2022/07/21 07:43:30;;;;;;;25.90;20.60;;;19.70;99.90;;;;;;4993790;28;20050;-76
2022/07/21 07:45:56;;;;;;;32.33;23.75;;;19.60;99.90;;;;;;4994924;28;20129;-75
2022/07/21 07:48:22;;;;;;;23.77;20.40;;;19.60;99.90;;;;;;4994812;28;20389;-75
2022/07/21 07:50:48;;;;;;;26.77;20.77;;;19.50;99.90;;;;;;4994731;28;20050;-76
2022/07/21 07:53:16;;;;;;;26.73;21.60;;;19.50;99.90;;;;;;4994216;28;20050;-77
2022/07/21 07:55:42;;;;;;;25.60;21.65;;;19.50;99.90;;;;;;4994695;28;20046;-75
2022/07/21 07:58:07;;;;;;;27.35;21.95;;;19.50;99.90;;;;;;4994000;28;20137;-75
2022/07/21 08:00:33;;;;;;;24.00;20.17;;;19.50;99.90;;;;;;4977474;28;20050;-74
2022/07/21 08:02:59;;;;;;;23.20;20.50;;;19.50;99.90;;;;;;4977490;28;20062;-73
2022/07/21 08:05:25;;;;;;;26.10;21.52;;;19.50;99.90;;;;;;4994319;28;20049;-75
2022/07/21 08:07:50;;;;;;;22.90;19.65;;;19.60;99.90;;;;;;4993175;28;20115;-76
2022/07/21 08:10:16;;;;;;;25.10;20.77;;;19.60;99.90;;;;;;4992848;28;20053;-80
2022/07/21 08:12:42;;;;;;;25.25;19.88;;;19.60;99.90;;;;;;4993111;28;20063;-78
2022/07/21 08:15:08;;;;;;;27.15;20.98;;;19.60;99.90;;;;;;4994038;28;20597;-78
2022/07/21 08:17:34;;;;;;;23.77;19.73;;;19.60;99.90;;;;;;4993919;28;20050;-78
2022/07/21 08:20:05;;;;;;;22.58;19.38;;;19.60;99.90;;;;;;4994108;28;20486;-77
2022/07/21 08:22:31;;;;;;;22.95;19.45;;;19.70;99.90;;;;;;5000566;28;20053;-78
2022/07/21 08:24:56;;;;;;;24.35;20.92;;;19.70;99.90;;;;;;4993567;28;20386;-77
2022/07/21 08:27:22;;;;;;;27.80;20.88;;;19.70;99.90;;;;;;4992765;28;20396;-77
2022/07/21 08:29:49;;;;;;;22.58;19.92;;;19.80;99.90;;;;;;4992855;28;20069;-79
2022/07/21 08:32:17;;;;;;;22.95;19.38;;;19.80;99.90;;;;;;4994059;28;20042;-79
2022/07/21 08:34:44;;;;;;;21.17;18.60;;;19.80;99.90;;;;;;4992688;28;20053;-80
2022/07/21 08:37:09;;;;;;;23.50;19.30;;;19.90;99.90;;;;;;4992751;28;20579;-80
2022/07/21 08:39:35;;;;;;;22.98;19.17;;;20.00;99.90;;;;;;4993902;28;20082;-80
2022/07/21 08:42:01;;;;;;;22.25;18.55;;;20.00;99.90;;;;;;4976546;28;20050;-80
2022/07/21 08:44:27;;;;;;;19.10;17.10;;;20.10;99.90;;;;;;4987546;28;20473;-81
2022/07/21 08:46:52;;;;;;;22.00;18.50;;;20.20;99.90;;;;;;4983681;28;20053;-79
2022/07/21 08:49:22;;;;;;;20.65;17.42;;;20.30;99.90;;;;;;4987985;28;20044;-79
2022/07/21 08:51:49;;;;;;;21.05;18.08;;;20.30;99.90;;;;;;4987471;28;20043;-80
2022/07/21 08:54:15;;;;;;;21.05;18.30;;;20.50;99.90;;;;;;4984228;28;20066;-79
2022/07/21 08:56:41;;;;;;;23.90;18.88;;;20.70;99.90;;;;;;4981886;28;20054;-81
2022/07/21 08:59:06;;;;;;;19.17;16.85;;;20.80;99.90;;;;;;4969928;28;20049;-81
2022/07/21 09:01:33;;;;;;;21.83;16.27;;;20.90;99.90;;;;;;4983640;28;20151;-82
2022/07/21 09:04:19;;;;;;;18.20;14.88;;;20.80;99.90;;;;;;4986202;28;20100;-82
2022/07/21 09:07:00;;;;;;;18.75;16.13;;;20.80;99.90;;;;;;4987851;28;20125;-84
2022/07/21 09:09:27;;;;;;;16.73;14.25;;;20.90;99.90;;;;;;4965396;28;20112;-82
2022/07/21 09:11:54;;;;;;;16.60;14.07;;;20.90;99.90;;;;;;4988173;28;20048;-82
2022/07/21 09:14:23;;;;;;;14.23;12.68;;;21.00;99.90;;;;;;4988436;28;20327;-82
2022/07/21 09:16:51;;;;;;;13.65;12.02;;;21.10;99.90;;;;;;4988034;28;20042;-82
2022/07/21 09:19:27;;;;;;;15.35;13.70;;;21.20;99.90;;;;;;4988304;28;20082;-81
2022/07/21 09:21:55;;;;;;;17.08;14.68;;;21.30;99.90;;;;;;4989175;28;20038;-81
2022/07/21 09:24:29;;;;;;;15.63;14.00;;;21.30;99.90;;;;;;4985302;28;20054;-81
2022/07/21 09:27:13;;;;;;;16.90;13.77;;;21.30;99.90;;;;;;4987310;28;20058;-81
2022/07/21 09:29:46;;;;;;;15.00;13.18;;;21.20;99.90;;;;;;4986877;28;20058;-81
2022/07/21 09:32:23;;;;;;;17.80;14.65;;;21.20;99.90;;;;;;4989639;28;20094;-82
2022/07/21 09:35:04;;;;;;;17.05;14.70;;;21.20;99.90;;;;;;4989611;28;20042;-80
2022/07/21 09:37:30;;;;;;;16.60;14.80;;;21.20;99.90;;;;;;4992658;28;20390;-80
2022/07/21 09:39:59;;;;;;;14.95;13.45;;;21.20;99.90;;;;;;4991500;28;20285;-82
2022/07/21 09:42:27;;;;;;;16.95;15.15;;;21.30;99.90;;;;;;4993726;28;20050;-77
2022/07/21 09:45:20;;;;;;;17.80;15.75;;;21.30;99.90;;;;;;4988966;28;20057;-80
2022/07/21 09:47:47;;;;;;;17.35;14.95;;;21.30;99.90;;;;;;4990530;28;20073;-78
2022/07/21 09:50:16;;;;;;;17.48;14.55;;;21.40;99.90;;;;;;4992365;28;20046;-78
2022/07/21 09:52:43;;;;;;;16.77;14.18;;;21.40;99.90;;;;;;4991440;28;20050;-79
2022/07/21 09:55:15;;;;;;;15.52;13.70;;;21.40;99.90;;;;;;4991561;28;20125;-80
2022/07/21 09:57:41;;;;;;;14.30;12.73;;;21.40;99.90;;;;;;4987844;28;20050;-78
2022/07/21 10:00:16;;;;;;;13.98;11.82;;;21.40;99.90;;;;;;4986876;28;20561;-78
2022/07/21 10:02:43;;;;;;;14.05;12.43;;;21.50;99.90;;;;;;4988166;28;20173;-79
2022/07/21 10:05:17;;;;;;;14.57;13.07;;;21.50;99.90;;;;;;4989978;28;20522;-77
2022/07/21 10:07:45;;;;;;;16.63;14.60;;;21.40;99.90;;;;;;4986497;28;20098;-79
2022/07/21 10:10:12;;;;;;;17.33;14.73;;;21.30;99.90;;;;;;4988484;28;20642;-81
2022/07/21 10:12:38;;;;;;;16.80;15.07;;;21.30;99.90;;;;;;4990617;28;20149;-77
2022/07/21 10:15:05;;;;;;;18.52;15.93;;;21.30;99.90;;;;;;4987229;28;20074;-80
2022/07/21 10:17:31;;;;;;;16.83;14.75;;;21.20;99.90;;;;;;4986149;28;20075;-77
2022/07/21 10:20:21;;;;;;;17.50;14.75;;;21.20;99.90;;;;;;4985313;28;20506;-83
2022/07/21 10:23:09;;;;;;;18.92;15.07;;;21.10;99.90;;;;;;4988334;28;20054;-77
2022/07/21 10:25:35;;;;;;;16.17;14.48;;;21.10;99.90;;;;;;4984721;28;20046;-81
2022/07/21 10:28:10;;;;;;;17.35;15.27;;;21.00;99.90;;;;;;4983750;28;20050;-75
2022/07/21 10:30:45;;;;;;;17.13;15.07;;;21.00;99.90;;;;;;4988094;28;20502;-75
2022/07/21 10:33:13;;;;;;;17.02;14.82;;;20.90;99.90;;;;;;4985159;28;20245;-76
2022/07/21 10:35:57;;;;;;;16.45;14.48;;;20.90;99.90;;;;;;4986908;28;20217;-76
2022/07/21 10:38:27;;;;;;;17.25;14.40;;;20.90;99.90;;;;;;4985680;28;20469;-78
2022/07/21 10:40:54;;;;;;;16.80;14.88;;;20.90;99.90;;;;;;4987189;28;20050;-77
2022/07/21 10:43:26;;;;;;;18.58;15.85;;;20.90;99.90;;;;;;4984227;28;20089;-77
2022/07/21 10:45:55;;;;;;;21.10;17.42;;;21.00;99.90;;;;;;4985599;28;20049;-77
2022/07/21 10:48:36;;;;;;;19.42;16.75;;;21.00;99.90;;;;;;4990566;28;20085;-77
2022/07/21 10:51:03;;;;;;;19.88;16.40;;;21.00;99.90;;;;;;4984273;28;20086;-78
2022/07/21 10:53:28;;;;;;;21.73;16.48;;;22.00;99.90;;;;;;4985214;28;20046;-78
2022/07/21 10:55:55;;;;;;;19.52;16.00;;;21.00;99.90;;;;;;4987338;28;20557;-77
2022/07/21 10:58:27;;;;;;;16.85;15.13;;;21.00;99.90;;;;;;4987865;28;20062;-76
2022/07/21 11:00:53;;;;;;;17.95;15.45;;;21.00;99.90;;;;;;4985993;28;20046;-76
2022/07/21 11:03:26;;;;;;;19.05;16.45;;;21.00;99.90;;;;;;4986067;28;20560;-75
2022/07/21 11:06:22;;;;;;;19.50;16.30;;;21.00;99.90;;;;;;4987303;28;20050;-76
2022/07/21 11:09:03;;;;;;;22.98;16.38;;;21.00;99.90;;;;;;4969228;28;20188;-75
2022/07/21 11:11:57;;;;;;;21.40;17.17;;;21.00;99.90;;;;;;4988167;28;20054;-75
2022/07/21 11:14:42;;;;;;;20.05;16.75;;;20.90;99.90;;;;;;4985839;28;20398;-75
2022/07/21 11:17:09;;;;;;;21.00;17.35;;;20.90;99.90;;;;;;4985301;28;20398;-75
2022/07/21 11:19:48;;;;;;;19.83;17.10;;;20.90;99.90;;;;;;4982697;28;20042;-75
2022/07/21 11:22:17;;;;;;;20.05;17.33;;;20.90;99.90;;;;;;4984290;28;20058;-75
2022/07/21 11:24:45;;;;;;;21.63;17.75;;;20.80;99.90;;;;;;4983441;28;20049;-74
2022/07/21 11:27:23;;;;;;;20.80;16.98;;;20.80;99.90;;;;;;4987484;28;20105;-74
2022/07/21 11:29:54;;;;;;;23.20;17.55;;;20.80;99.90;;;;;;4985073;28;20088;-75
2022/07/21 11:32:21;;;;;;;25.13;20.02;;;20.80;99.90;;;;;;4984421;28;20061;-75
2022/07/21 11:34:49;;;;;;;25.75;21.67;;;20.80;99.90;;;;;;4982392;28;20050;-74
2022/07/21 11:37:28;;;;;;;31.80;22.85;;;20.70;99.90;;;;;;4987176;28;20405;-79
2022/07/21 11:39:54;;;;;;;29.20;23.60;;;20.60;99.90;;;;;;5002422;28;20055;-75
2022/07/21 11:42:20;;;;;;;31.88;25.63;;;20.50;99.90;;;;;;4983469;28;20496;-75
2022/07/21 11:44:46;;;;;;;35.20;26.67;;;20.40;99.90;;;;;;4988037;28;20046;-75
2022/07/21 11:47:14;;;;;;;36.83;27.15;;;20.20;99.90;;;;;;4986974;28;20053;-73
2022/07/21 11:49:40;;;;;;;37.72;27.15;;;20.30;99.90;;;;;;4984146;28;20080;-72
2022/07/21 11:52:09;;;;;;;41.10;29.02;;;20.30;99.90;;;;;;4985200;28;20042;-73
2022/07/21 11:54:45;;;;;;;42.83;30.45;;;20.20;99.90;;;;;;4984535;28;20046;-75
2022/07/21 11:57:12;;;;;;;50.03;32.65;;;20.10;99.90;;;;;;4985619;28;20057;-77
2022/07/21 11:59:40;;;;;;;48.00;31.25;;;20.10;99.90;;;;;;4971392;28;20054;-74
2022/07/21 12:02:18;;;;;;;50.20;33.42;;;20.10;99.90;;;;;;4986772;28;21102;-73
2022/07/21 12:04:45;;;;;;;45.65;30.58;;;20.10;99.90;;;;;;4982827;28;20049;-73
2022/07/21 12:07:17;;;;;;;43.53;30.70;;;20.10;99.90;;;;;;4983332;28;20042;-73
2022/07/21 12:09:45;;;;;;;46.67;32.65;;;20.10;99.90;;;;;;4985744;28;20085;-74
2022/07/21 12:12:12;;;;;;;50.67;32.92;;;20.10;99.90;;;;;;4987805;28;20046;-74
2022/07/21 12:14:45;;;;;;;45.15;30.77;;;20.10;99.90;;;;;;4981299;28;20054;-74
2022/07/21 12:17:11;;;;;;;44.75;32.08;;;20.20;99.90;;;;;;4986214;28;20054;-73
2022/07/21 12:19:38;;;;;;;57.33;36.30;;;20.30;99.90;;;;;;4987262;28;20054;-74
2022/07/21 12:22:04;;;;;;;54.38;33.90;;;20.30;99.90;;;;;;4981942;28;20704;-74
2022/07/21 12:25:03;;;;;;;54.25;35.40;;;20.50;99.90;;;;;;4988994;28;20050;-73
2022/07/21 12:27:28;;;;;;;46.30;31.33;;;20.60;99.90;;;;;;4960295;28;20047;-75
2022/07/21 12:29:55;;;;;;;47.47;32.28;;;20.70;99.90;;;;;;4993669;28;20050;-74
2022/07/21 12:32:41;;;;;;;57.33;35.28;;;20.80;99.90;;;;;;4993736;28;20045;-74
2022/07/21 12:35:21;;;;;;;46.90;33.30;;;21.00;99.90;;;;;;4991843;28;20053;-75